createdAt,value
2019-03-03T00:00:22.856Z,6.50
2019-03-03T00:01:23.041Z,7.10
2019-03-03T00:02:23.201Z,6.20
2019-03-03T00:03:23.343Z,7.40
2019-03-03T00:04:23.523Z,8.40
2019-03-03T00:05:23.674Z,6.50
2019-03-03T00:06:23.824Z,7.60
2019-03-03T00:07:23.977Z,6.90
2019-03-03T00:08:24.739Z,7.40
2019-03-03T00:09:24.313Z,8.80
2019-03-03T00:10:24.493Z,8.30
2019-03-03T00:11:24.680Z,8.30
2019-03-03T00:12:24.829Z,8.70
2019-03-03T00:13:25.008Z,10.00
2019-03-03T00:14:25.181Z,7.60
2019-03-03T00:15:25.361Z,8.20
2019-03-03T00:16:25.527Z,8.80
2019-03-03T00:17:25.708Z,8.10
2019-03-03T00:18:25.882Z,7.50
2019-03-03T00:19:26.063Z,8.40
2019-03-03T00:20:26.235Z,8.30
2019-03-03T00:21:26.401Z,8.00
2019-03-03T00:22:26.578Z,9.60
2019-03-03T00:23:26.750Z,13.60
2019-03-03T00:24:26.921Z,7.70
2019-03-03T00:25:27.096Z,7.10
2019-03-03T00:26:27.270Z,6.40
2019-03-03T00:27:27.481Z,7.10
2019-03-03T00:28:27.620Z,7.20
2019-03-03T00:29:27.806Z,6.80
2019-03-03T00:30:27.977Z,8.30
2019-03-03T00:31:28.139Z,6.20
2019-03-03T00:32:28.314Z,5.50
2019-03-03T00:33:28.488Z,7.40
2019-03-03T00:34:28.663Z,6.70
2019-03-03T00:35:28.849Z,8.40
2019-03-03T00:36:29.016Z,7.80
2019-03-03T00:37:29.206Z,7.50
2019-03-03T00:38:29.384Z,10.10
2019-03-03T00:39:29.547Z,7.40
2019-03-03T00:40:29.714Z,6.20
2019-03-03T00:41:29.891Z,7.30
2019-03-03T00:42:30.079Z,6.30
2019-03-03T00:43:30.220Z,9.10
2019-03-03T00:44:30.392Z,5.50
2019-03-03T00:45:30.563Z,8.70
2019-03-03T00:46:30.739Z,6.60
2019-03-03T00:47:30.924Z,7.70
2019-03-03T00:48:31.096Z,6.40
2019-03-03T00:49:31.261Z,6.20
2019-03-03T00:50:31.440Z,7.00
2019-03-03T00:51:31.622Z,7.20
2019-03-03T00:52:31.791Z,6.50
2019-03-03T00:53:31.968Z,6.90
2019-03-03T00:54:32.142Z,6.30
2019-03-03T00:55:32.324Z,6.70
2019-03-03T00:56:32.491Z,6.60
2019-03-03T00:57:32.667Z,6.10
2019-03-03T00:58:32.847Z,8.10
2019-03-03T00:59:33.017Z,7.70
2019-03-03T01:00:33.201Z,7.80
2019-03-03T01:01:33.374Z,6.30
2019-03-03T01:02:33.547Z,7.70
2019-03-03T01:03:33.723Z,6.00
2019-03-03T01:04:33.893Z,6.30
2019-03-03T01:05:34.068Z,6.10
2019-03-03T01:06:34.229Z,6.60
2019-03-03T01:07:34.402Z,7.60
2019-03-03T01:08:34.575Z,6.90
2019-03-03T01:09:34.754Z,7.70
2019-03-03T01:10:34.934Z,6.80
2019-03-03T01:11:35.111Z,6.60
2019-03-03T01:12:35.962Z,6.50
2019-03-03T01:13:35.516Z,6.10
2019-03-03T01:14:35.681Z,6.90
2019-03-03T01:15:35.854Z,8.10
2019-03-03T01:16:36.032Z,6.60
2019-03-03T01:17:36.207Z,8.50
2019-03-03T01:18:36.376Z,6.40
2019-03-03T01:19:36.581Z,7.60
2019-03-03T01:20:36.747Z,8.30
2019-03-03T01:21:36.926Z,8.00
2019-03-03T01:22:37.102Z,7.60
2019-03-03T01:23:37.272Z,8.60
2019-03-03T01:24:37.455Z,7.40
2019-03-03T01:25:37.621Z,8.60
2019-03-03T01:26:37.801Z,6.60
2019-03-03T01:27:37.976Z,7.80
2019-03-03T01:28:38.149Z,7.80
2019-03-03T01:29:38.340Z,10.00
2019-03-03T01:30:38.488Z,7.20
2019-03-03T01:31:38.665Z,7.60
2019-03-03T01:32:38.838Z,7.40
2019-03-03T01:33:39.013Z,7.60
2019-03-03T01:34:39.191Z,7.30
2019-03-03T01:35:39.369Z,7.80
2019-03-03T01:36:39.535Z,5.80
2019-03-03T01:37:39.709Z,7.60
2019-03-03T01:38:39.900Z,6.90
2019-03-03T01:39:40.061Z,9.40
2019-03-03T01:41:40.408Z,8.00
2019-03-03T01:42:40.567Z,8.60
2019-03-03T01:43:40.756Z,7.50
2019-03-03T01:44:40.912Z,7.90
2019-03-03T01:45:41.090Z,7.40
2019-03-03T01:46:41.262Z,6.90
2019-03-03T01:47:41.436Z,8.80
2019-03-03T01:48:41.615Z,9.10
2019-03-03T01:49:41.782Z,7.30
2019-03-03T01:50:41.953Z,8.00
2019-03-03T01:51:42.137Z,6.90
2019-03-03T01:52:42.326Z,9.20
2019-03-03T01:53:42.496Z,7.70
2019-03-03T01:54:42.651Z,7.90
2019-03-03T01:55:42.826Z,7.80
2019-03-03T01:56:42.992Z,8.60
2019-03-03T01:57:43.178Z,8.30
2019-03-03T01:58:43.360Z,10.50
2019-03-03T01:59:43.533Z,7.70
2019-03-03T02:00:44.997Z,7.20
2019-03-03T02:01:43.880Z,8.20
2019-03-03T02:02:44.054Z,7.70
2019-03-03T02:03:44.226Z,9.20
2019-03-03T02:04:44.402Z,9.30
2019-03-03T02:05:44.574Z,8.20
2019-03-03T02:06:44.739Z,8.50
2019-03-03T02:07:44.906Z,9.40
2019-03-03T02:08:45.090Z,8.20
2019-03-03T02:09:45.270Z,7.80
2019-03-03T02:10:45.422Z,7.30
2019-03-03T02:11:45.598Z,7.80
2019-03-03T02:12:45.774Z,6.90
2019-03-03T02:13:45.947Z,8.90
2019-03-03T02:14:46.124Z,9.60
2019-03-03T02:15:46.295Z,8.30
2019-03-03T02:16:46.473Z,9.20
2019-03-03T02:17:46.650Z,7.40
2019-03-03T02:18:46.834Z,8.50
2019-03-03T02:19:47.008Z,8.20
2019-03-03T02:20:47.176Z,10.00
2019-03-03T02:21:47.363Z,7.80
2019-03-03T02:22:47.551Z,7.40
2019-03-03T02:23:47.727Z,6.80
2019-03-03T02:24:47.901Z,8.30
2019-03-03T02:25:48.080Z,8.30
2019-03-03T02:26:48.236Z,8.10
2019-03-03T02:27:48.406Z,9.50
2019-03-03T02:28:48.572Z,9.50
2019-03-03T02:29:48.746Z,9.10
2019-03-03T02:30:48.916Z,8.40
2019-03-03T02:31:49.087Z,9.40
2019-03-03T02:32:49.273Z,11.50
2019-03-03T02:33:49.446Z,8.00
2019-03-03T02:34:49.610Z,7.30
2019-03-03T02:35:49.781Z,10.60
2019-03-03T02:36:49.958Z,10.20
2019-03-03T02:37:50.129Z,8.40
2019-03-03T02:38:50.305Z,10.80
2019-03-03T02:39:50.470Z,8.20
2019-03-03T02:40:50.640Z,7.70
2019-03-03T02:41:50.813Z,9.20
2019-03-03T02:42:50.988Z,8.70
2019-03-03T02:43:51.167Z,8.20
2019-03-03T02:44:51.343Z,9.30
2019-03-03T02:45:51.524Z,9.00
2019-03-03T02:46:51.689Z,8.00
2019-03-03T02:47:51.870Z,8.90
2019-03-03T02:48:52.036Z,8.40
2019-03-03T02:49:52.218Z,11.80
2019-03-03T02:50:52.383Z,9.20
2019-03-03T02:51:52.560Z,8.80
2019-03-03T02:52:52.741Z,9.00
2019-03-03T02:53:52.912Z,10.10
2019-03-03T02:54:53.092Z,10.30
2019-03-03T02:55:53.264Z,9.20
2019-03-03T02:56:53.439Z,8.80
2019-03-03T02:57:53.617Z,9.30
2019-03-03T02:58:53.817Z,11.60
2019-03-03T02:59:53.994Z,11.60
2019-03-03T03:00:54.165Z,10.00
2019-03-03T03:01:54.342Z,10.40
2019-03-03T03:02:54.514Z,10.60
2019-03-03T03:03:54.697Z,11.50
2019-03-03T03:04:54.862Z,10.60
2019-03-03T03:05:55.036Z,12.10
2019-03-03T03:06:55.204Z,11.10
2019-03-03T03:07:55.379Z,9.20
2019-03-03T03:08:55.554Z,8.40
2019-03-03T03:09:55.730Z,13.30
2019-03-03T03:10:55.903Z,10.10
2019-03-03T03:11:56.078Z,11.10
2019-03-03T03:12:56.246Z,10.20
2019-03-03T03:13:56.438Z,11.30
2019-03-03T03:14:56.596Z,11.30
2019-03-03T03:15:56.770Z,9.90
2019-03-03T03:16:56.945Z,11.20
2019-03-03T03:17:57.137Z,10.70
2019-03-03T03:18:57.341Z,11.30
2019-03-03T03:19:57.474Z,11.80
2019-03-03T03:20:57.662Z,10.40
2019-03-03T03:21:57.833Z,12.90
2019-03-03T03:22:58.007Z,11.50
2019-03-03T03:23:58.176Z,11.90
2019-03-03T03:24:58.341Z,11.40
2019-03-03T03:25:58.517Z,12.20
2019-03-03T03:26:58.702Z,11.40
2019-03-03T03:27:58.869Z,10.50
2019-03-03T03:28:59.054Z,14.60
2019-03-03T03:29:59.228Z,14.10
2019-03-03T03:30:59.416Z,10.60
2019-03-03T03:31:59.593Z,10.70
2019-03-03T03:32:59.760Z,11.60
2019-03-03T03:33:59.939Z,12.50
2019-03-03T03:35:00.754Z,10.30
2019-03-03T03:36:00.304Z,11.00
2019-03-03T03:37:00.462Z,12.60
2019-03-03T03:38:00.641Z,11.40
2019-03-03T03:39:00.809Z,10.70
2019-03-03T03:40:00.988Z,12.10
2019-03-03T03:41:01.158Z,16.10
2019-03-03T03:42:01.346Z,12.60
2019-03-03T03:43:01.506Z,11.90
2019-03-03T03:44:01.682Z,11.40
2019-03-03T03:45:01.858Z,14.30
2019-03-03T03:46:02.027Z,11.10
2019-03-03T03:47:02.202Z,12.00
2019-03-03T03:48:02.380Z,12.40
2019-03-03T03:49:02.555Z,12.80
2019-03-03T03:50:02.735Z,14.10
2019-03-03T03:51:02.908Z,12.40
2019-03-03T03:52:03.082Z,13.20
2019-03-03T03:53:03.258Z,13.50
2019-03-03T03:54:03.434Z,13.00
2019-03-03T03:55:03.616Z,14.80
2019-03-03T03:56:03.789Z,9.90
2019-03-03T03:57:03.961Z,12.70
2019-03-03T03:58:04.146Z,11.80
2019-03-03T03:59:04.349Z,11.40
2019-03-03T04:00:04.524Z,13.40
2019-03-03T04:01:04.705Z,10.10
2019-03-03T04:02:04.883Z,11.60
2019-03-03T04:03:05.066Z,10.80
2019-03-03T04:04:05.233Z,11.30
2019-03-03T04:05:05.407Z,13.50
2019-03-03T04:06:05.587Z,11.90
2019-03-03T04:07:05.765Z,11.70
2019-03-03T04:08:05.936Z,13.00
2019-03-03T04:09:06.118Z,12.80
2019-03-03T04:10:06.282Z,10.60
2019-03-03T04:11:06.481Z,11.40
2019-03-03T04:12:06.630Z,9.80
2019-03-03T04:13:06.809Z,12.10
2019-03-03T04:14:06.992Z,10.90
2019-03-03T04:15:07.152Z,11.70
2019-03-03T04:16:07.322Z,11.10
2019-03-03T04:17:07.499Z,11.90
2019-03-03T04:18:07.688Z,12.30
2019-03-03T04:19:07.864Z,11.50
2019-03-03T04:20:08.059Z,10.60
2019-03-03T04:21:08.285Z,11.50
2019-03-03T04:22:08.373Z,12.30
2019-03-03T04:23:08.545Z,12.70
2019-03-03T04:24:08.719Z,11.50
2019-03-03T04:25:08.892Z,11.00
2019-03-03T04:26:09.067Z,10.10
2019-03-03T04:27:09.243Z,9.70
2019-03-03T04:28:09.432Z,12.30
2019-03-03T04:29:09.604Z,13.70
2019-03-03T04:30:09.779Z,11.40
2019-03-03T04:31:09.948Z,11.90
2019-03-03T04:32:10.122Z,10.10
2019-03-03T04:33:10.303Z,12.90
2019-03-03T04:34:10.482Z,13.00
2019-03-03T04:35:10.640Z,10.60
2019-03-03T04:36:10.823Z,11.70
2019-03-03T04:37:10.986Z,9.60
2019-03-03T04:38:11.148Z,11.00
2019-03-03T04:39:11.324Z,11.30
2019-03-03T04:40:11.502Z,11.20
2019-03-03T04:41:11.671Z,10.60
2019-03-03T04:42:11.846Z,10.90
2019-03-03T04:43:12.018Z,12.10
2019-03-03T04:44:12.186Z,12.90
2019-03-03T04:45:12.358Z,10.00
2019-03-03T04:46:12.539Z,10.50
2019-03-03T04:47:12.712Z,11.60
2019-03-03T04:48:12.886Z,13.30
2019-03-03T04:49:13.061Z,13.50
2019-03-03T04:50:13.227Z,11.30
2019-03-03T04:51:13.410Z,11.80
2019-03-03T04:52:13.600Z,9.40
2019-03-03T04:53:13.746Z,11.70
2019-03-03T04:54:13.924Z,9.80
2019-03-03T04:55:14.097Z,11.60
2019-03-03T04:56:14.274Z,11.30
2019-03-03T04:57:14.442Z,11.70
2019-03-03T04:58:14.619Z,10.10
2019-03-03T04:59:14.792Z,12.70
2019-03-03T05:00:14.975Z,9.00
2019-03-03T05:01:15.150Z,10.20
2019-03-03T05:02:15.310Z,13.50
2019-03-03T05:03:15.508Z,9.20
2019-03-03T05:04:15.665Z,13.10
2019-03-03T05:05:15.830Z,13.70
2019-03-03T05:06:16.012Z,9.00
2019-03-03T05:07:16.188Z,11.80
2019-03-03T05:08:16.357Z,11.10
2019-03-03T05:09:16.535Z,10.70
2019-03-03T05:10:16.704Z,11.60
2019-03-03T05:11:16.881Z,8.70
2019-03-03T05:12:17.074Z,11.50
2019-03-03T05:13:17.232Z,12.20
2019-03-03T05:14:17.407Z,9.50
2019-03-03T05:15:17.582Z,9.90
2019-03-03T05:16:17.757Z,12.50
2019-03-03T05:17:17.938Z,11.00
2019-03-03T05:18:18.111Z,8.70
2019-03-03T05:19:18.289Z,8.20
2019-03-03T05:20:18.458Z,10.80
2019-03-03T05:21:18.630Z,10.10
2019-03-03T05:22:18.812Z,10.30
2019-03-03T05:23:18.975Z,10.30
2019-03-03T05:24:19.149Z,10.60
2019-03-03T05:25:19.323Z,11.30
2019-03-03T05:26:19.496Z,12.50
2019-03-03T05:27:19.676Z,10.90
2019-03-03T05:28:19.851Z,11.10
2019-03-03T05:29:20.011Z,11.00
2019-03-03T05:30:20.185Z,10.40
2019-03-03T05:31:20.361Z,9.80
2019-03-03T05:32:20.539Z,10.50
2019-03-03T05:33:20.712Z,9.90
2019-03-03T05:34:20.882Z,9.50
2019-03-03T05:35:21.056Z,8.70
2019-03-03T05:36:21.234Z,9.80
2019-03-03T05:37:21.411Z,12.10
2019-03-03T05:38:21.584Z,10.50
2019-03-03T05:39:21.760Z,10.10
2019-03-03T05:40:21.935Z,10.00
2019-03-03T05:41:22.106Z,10.20
2019-03-03T05:42:22.279Z,11.10
2019-03-03T05:43:22.453Z,8.50
2019-03-03T05:44:22.623Z,9.70
2019-03-03T05:45:22.811Z,10.80
2019-03-03T05:46:22.974Z,10.50
2019-03-03T05:47:23.152Z,10.20
2019-03-03T05:48:23.331Z,9.90
2019-03-03T05:49:23.486Z,11.10
2019-03-03T05:50:23.661Z,8.90
2019-03-03T05:51:23.841Z,9.40
2019-03-03T05:52:24.013Z,8.80
2019-03-03T05:53:24.192Z,11.50
2019-03-03T05:54:24.394Z,13.00
2019-03-03T05:55:24.527Z,13.20
2019-03-03T05:56:24.707Z,9.20
2019-03-03T05:57:24.876Z,10.30
2019-03-03T05:58:25.049Z,10.70
2019-03-03T05:59:25.225Z,9.80
2019-03-03T06:00:25.402Z,10.60
2019-03-03T06:01:25.579Z,9.50
2019-03-03T06:02:25.757Z,10.10
2019-03-03T06:03:25.929Z,11.30
2019-03-03T06:04:26.120Z,10.80
2019-03-03T06:05:26.276Z,10.60
2019-03-03T06:06:26.457Z,10.30
2019-03-03T06:07:26.633Z,12.60
2019-03-03T06:08:26.807Z,8.10
2019-03-03T06:09:26.977Z,11.80
2019-03-03T06:10:27.157Z,10.00
2019-03-03T06:11:27.323Z,11.20
2019-03-03T06:12:27.495Z,14.00
2019-03-03T06:13:27.667Z,10.30
2019-03-03T06:14:27.839Z,10.70
2019-03-03T06:15:28.010Z,15.10
2019-03-03T06:16:28.185Z,12.60
2019-03-03T06:17:28.369Z,10.10
2019-03-03T06:18:28.538Z,9.50
2019-03-03T06:19:28.702Z,11.00
2019-03-03T06:20:28.876Z,14.00
2019-03-03T06:21:29.054Z,9.60
2019-03-03T06:22:29.230Z,10.80
2019-03-03T06:23:29.404Z,11.30
2019-03-03T06:24:29.580Z,12.40
2019-03-03T06:25:29.757Z,10.20
2019-03-03T06:26:29.922Z,8.60
2019-03-03T06:27:30.101Z,11.70
2019-03-03T06:28:30.277Z,8.90
2019-03-03T06:29:30.451Z,10.10
2019-03-03T06:30:30.647Z,10.30
2019-03-03T06:31:30.804Z,8.40
2019-03-03T06:32:30.985Z,8.40
2019-03-03T06:33:31.169Z,9.50
2019-03-03T06:34:31.346Z,9.90
2019-03-03T06:35:31.516Z,9.10
2019-03-03T06:36:31.704Z,9.40
2019-03-03T06:37:31.869Z,9.40
2019-03-03T06:38:32.045Z,10.60
2019-03-03T06:39:32.224Z,9.10
2019-03-03T06:40:32.412Z,8.60
2019-03-03T06:41:32.578Z,11.70
2019-03-03T06:42:32.756Z,11.80
2019-03-03T06:43:32.938Z,8.80
2019-03-03T06:44:33.106Z,11.80
2019-03-03T06:45:33.278Z,11.50
2019-03-03T06:46:33.452Z,11.10
2019-03-03T06:47:33.622Z,9.80
2019-03-03T06:48:33.801Z,8.10
2019-03-03T06:49:33.975Z,10.60
2019-03-03T06:50:34.139Z,10.90
2019-03-03T06:51:34.316Z,9.80
2019-03-03T06:52:34.504Z,8.30
2019-03-03T06:53:34.671Z,9.30
2019-03-03T06:54:34.847Z,8.60
2019-03-03T06:55:35.031Z,7.90
2019-03-03T06:56:35.214Z,10.70
2019-03-03T06:57:35.382Z,9.40
2019-03-03T06:58:35.565Z,9.60
2019-03-03T06:59:35.724Z,7.90
2019-03-03T07:00:35.910Z,9.50
2019-03-03T07:01:36.078Z,11.40
2019-03-03T07:02:36.254Z,9.00
2019-03-03T07:03:36.429Z,9.30
2019-03-03T07:04:36.606Z,7.60
2019-03-03T07:05:36.783Z,10.30
2019-03-03T07:06:36.958Z,7.80
2019-03-03T07:07:37.134Z,10.80
2019-03-03T07:08:37.309Z,9.50
2019-03-03T07:09:37.486Z,8.20
2019-03-03T07:10:37.645Z,13.70
2019-03-03T07:11:37.824Z,8.90
2019-03-03T07:12:38.001Z,11.00
2019-03-03T07:13:38.183Z,7.90
2019-03-03T07:14:38.360Z,9.50
2019-03-03T07:15:38.539Z,8.30
2019-03-03T07:16:38.709Z,9.70
2019-03-03T07:17:38.888Z,10.50
2019-03-03T07:18:39.081Z,9.10
2019-03-03T07:19:39.241Z,9.90
2019-03-03T07:20:39.411Z,10.10
2019-03-03T07:21:39.584Z,9.10
2019-03-03T07:22:39.762Z,9.30
2019-03-03T07:23:39.932Z,9.90
2019-03-03T07:24:40.109Z,12.00
2019-03-03T07:25:40.276Z,10.00
2019-03-03T07:26:40.455Z,10.40
2019-03-03T07:27:40.631Z,9.60
2019-03-03T07:28:40.808Z,7.80
2019-03-03T07:29:40.990Z,9.30
2019-03-03T07:30:41.154Z,10.10
2019-03-03T07:31:41.336Z,10.50
2019-03-03T07:32:41.518Z,9.30
2019-03-03T07:33:41.690Z,9.30
2019-03-03T07:34:41.865Z,10.00
2019-03-03T07:35:42.039Z,8.60
2019-03-03T07:36:42.216Z,9.60
2019-03-03T07:37:42.391Z,8.60
2019-03-03T07:38:42.572Z,9.40
2019-03-03T07:39:42.742Z,8.60
2019-03-03T07:40:42.925Z,10.80
2019-03-03T07:41:43.095Z,10.40
2019-03-03T07:42:43.271Z,12.10
2019-03-03T07:43:43.440Z,10.90
2019-03-03T07:44:43.620Z,11.20
2019-03-03T07:45:43.793Z,7.00
2019-03-03T07:46:43.981Z,11.50
2019-03-03T07:47:44.150Z,10.40
2019-03-03T07:48:44.325Z,13.00
2019-03-03T07:49:44.502Z,9.20
2019-03-03T07:50:44.680Z,8.90
2019-03-03T07:51:44.836Z,9.50
2019-03-03T07:52:45.025Z,9.10
2019-03-03T07:53:45.189Z,12.40
2019-03-03T07:54:45.358Z,8.00
2019-03-03T07:55:45.537Z,10.20
2019-03-03T07:56:45.706Z,11.80
2019-03-03T07:57:46.907Z,10.90
2019-03-03T07:58:46.060Z,10.20
2019-03-03T07:59:46.249Z,10.10
2019-03-03T08:00:46.420Z,10.90
2019-03-03T08:01:46.597Z,10.80
2019-03-03T08:02:46.785Z,10.10
2019-03-03T08:03:46.946Z,7.70
2019-03-03T08:04:47.122Z,10.60
2019-03-03T08:05:47.298Z,8.70
2019-03-03T08:06:47.469Z,11.00
2019-03-03T08:07:47.647Z,11.10
2019-03-03T08:09:47.992Z,11.20
2019-03-03T08:10:48.167Z,10.10
2019-03-03T08:11:48.346Z,13.60
2019-03-03T08:12:48.521Z,12.90
2019-03-03T08:13:48.702Z,9.30
2019-03-03T08:14:48.856Z,11.10
2019-03-03T08:15:49.029Z,10.30
2019-03-03T08:16:49.200Z,11.40
2019-03-03T08:17:49.390Z,9.60
2019-03-03T08:18:49.555Z,11.40
2019-03-03T08:19:49.730Z,12.10
2019-03-03T08:20:49.919Z,14.60
2019-03-03T08:21:50.083Z,10.40
2019-03-03T08:22:50.273Z,11.50
2019-03-03T08:23:50.431Z,12.80
2019-03-03T08:24:51.407Z,9.70
2019-03-03T08:25:50.779Z,11.90
2019-03-03T08:26:50.955Z,10.30
2019-03-03T08:27:51.127Z,13.60
2019-03-03T08:28:51.303Z,11.90
2019-03-03T08:29:51.489Z,11.70
2019-03-03T08:30:51.656Z,10.70
2019-03-03T08:31:51.832Z,10.50
2019-03-03T08:32:52.012Z,9.20
2019-03-03T08:33:52.183Z,15.10
2019-03-03T08:34:52.364Z,11.80
2019-03-03T08:35:52.535Z,14.70
2019-03-03T08:36:52.712Z,12.30
2019-03-03T08:37:52.890Z,11.80
2019-03-03T08:38:53.065Z,10.90
2019-03-03T08:39:53.239Z,13.60
2019-03-03T08:40:53.416Z,12.20
2019-03-03T08:41:53.595Z,11.10
2019-03-03T08:42:53.771Z,12.30
2019-03-03T08:43:53.947Z,11.60
2019-03-03T08:44:54.117Z,12.40
2019-03-03T08:45:54.298Z,11.90
2019-03-03T08:46:54.472Z,12.70
2019-03-03T08:47:54.649Z,13.10
2019-03-03T08:48:54.823Z,10.80
2019-03-03T08:49:55.001Z,11.10
2019-03-03T08:50:55.175Z,11.90
2019-03-03T08:51:55.353Z,14.30
2019-03-03T08:52:55.528Z,11.40
2019-03-03T08:53:55.702Z,11.30
2019-03-03T08:54:57.829Z,11.70
2019-03-03T08:55:56.071Z,14.50
2019-03-03T08:56:56.231Z,10.00
2019-03-03T08:57:56.421Z,12.30
2019-03-03T08:58:56.597Z,11.00
2019-03-03T08:59:56.771Z,13.40
2019-03-03T09:00:56.951Z,12.70
2019-03-03T09:01:57.112Z,12.30
2019-03-03T09:02:57.298Z,14.70
2019-03-03T09:03:57.462Z,11.70
2019-03-03T09:04:57.632Z,15.30
2019-03-03T09:05:57.808Z,11.70
2019-03-03T09:06:57.981Z,13.10
2019-03-03T09:07:58.161Z,12.70
2019-03-03T09:08:58.324Z,11.50
2019-03-03T09:09:58.496Z,13.60
2019-03-03T09:10:58.664Z,11.90
2019-03-03T09:11:58.844Z,15.10
2019-03-03T09:12:59.014Z,12.10
2019-03-03T09:13:59.198Z,14.50
2019-03-03T09:14:59.369Z,12.40
2019-03-03T09:15:59.543Z,12.30
2019-03-03T09:16:59.715Z,13.40
2019-03-03T09:17:59.892Z,12.60
2019-03-03T09:19:00.072Z,10.50
2019-03-03T09:20:00.338Z,14.90
2019-03-03T09:21:00.424Z,14.20
2019-03-03T09:22:00.606Z,14.60
2019-03-03T09:23:00.781Z,13.30
2019-03-03T09:24:00.955Z,12.80
2019-03-03T09:25:01.129Z,11.10
2019-03-03T09:26:01.320Z,13.90
2019-03-03T09:27:01.491Z,13.70
2019-03-03T09:28:01.635Z,12.40
2019-03-03T09:29:01.815Z,15.50
2019-03-03T09:30:02.008Z,12.30
2019-03-03T09:31:02.167Z,12.30
2019-03-03T09:32:02.342Z,12.10
2019-03-03T09:33:02.513Z,12.70
2019-03-03T09:34:02.698Z,12.60
2019-03-03T09:35:02.864Z,11.40
2019-03-03T09:36:03.038Z,16.50
2019-03-03T09:37:03.224Z,12.50
2019-03-03T09:38:03.388Z,13.90
2019-03-03T09:39:05.538Z,13.20
2019-03-03T09:40:09.366Z,11.10
2019-03-03T09:41:03.927Z,17.80
2019-03-03T09:42:04.091Z,12.60
2019-03-03T09:43:04.276Z,13.50
2019-03-03T09:44:04.474Z,14.40
2019-03-03T09:45:04.629Z,14.00
2019-03-03T09:46:04.790Z,12.60
2019-03-03T09:47:04.977Z,11.40
2019-03-03T09:48:05.142Z,14.40
2019-03-03T09:49:05.319Z,12.80
2019-03-03T09:50:05.494Z,19.30
2019-03-03T09:51:05.674Z,12.90
2019-03-03T09:52:05.839Z,15.50
2019-03-03T09:53:06.595Z,15.10
2019-03-03T09:54:06.263Z,15.20
2019-03-03T09:55:06.458Z,14.80
2019-03-03T09:56:06.666Z,14.10
2019-03-03T09:57:06.836Z,11.60
2019-03-03T09:58:07.004Z,16.30
2019-03-03T09:59:07.179Z,14.20
2019-03-03T10:00:07.351Z,14.30
2019-03-03T10:01:07.549Z,12.80
2019-03-03T10:02:07.714Z,12.90
2019-03-03T10:03:07.883Z,13.20
2019-03-03T10:04:08.048Z,13.90
2019-03-03T10:05:08.224Z,13.60
2019-03-03T10:06:08.402Z,11.10
2019-03-03T10:07:08.586Z,13.50
2019-03-03T10:08:08.755Z,14.40
2019-03-03T10:09:08.939Z,15.00
2019-03-03T10:10:09.121Z,16.10
2019-03-03T10:11:09.281Z,14.80
2019-03-03T10:12:09.455Z,16.90
2019-03-03T10:13:09.637Z,20.80
2019-03-03T10:14:09.817Z,16.90
2019-03-03T10:15:09.992Z,12.10
2019-03-03T10:16:10.164Z,13.30
2019-03-03T10:17:10.341Z,17.30
2019-03-03T10:18:10.513Z,14.90
2019-03-03T10:19:10.677Z,14.30
2019-03-03T10:20:10.874Z,12.30
2019-03-03T10:21:11.031Z,15.90
2019-03-03T10:22:11.209Z,13.20
2019-03-03T10:23:11.387Z,14.10
2019-03-03T10:24:11.560Z,12.30
2019-03-03T10:25:11.742Z,12.20
2019-03-03T10:26:11.906Z,13.60
2019-03-03T10:27:12.094Z,14.90
2019-03-03T10:28:12.261Z,13.60
2019-03-03T10:29:12.439Z,15.20
2019-03-03T10:30:12.613Z,10.80
2019-03-03T10:31:12.792Z,13.20
2019-03-03T10:32:12.970Z,13.00
2019-03-03T10:33:13.142Z,14.00
2019-03-03T10:34:13.307Z,13.80
2019-03-03T10:35:13.486Z,14.70
2019-03-03T10:36:13.661Z,13.90
2019-03-03T10:37:14.580Z,12.40
2019-03-03T10:38:14.004Z,13.50
2019-03-03T10:39:14.180Z,11.90
2019-03-03T10:40:14.370Z,17.10
2019-03-03T10:41:14.544Z,12.90
2019-03-03T10:42:14.695Z,16.70
2019-03-03T10:43:14.843Z,11.30
2019-03-03T10:44:15.019Z,12.90
2019-03-03T10:45:15.194Z,16.30
2019-03-03T10:46:15.379Z,11.60
2019-03-03T10:47:15.530Z,17.20
2019-03-03T10:48:15.719Z,11.10
2019-03-03T10:49:15.895Z,15.50
2019-03-03T10:50:16.067Z,14.70
2019-03-03T10:51:16.241Z,14.00
2019-03-03T10:52:16.398Z,12.20
2019-03-03T10:53:16.579Z,13.40
2019-03-03T10:54:16.759Z,12.00
2019-03-03T10:55:16.945Z,11.30
2019-03-03T10:56:17.110Z,15.40
2019-03-03T10:57:17.283Z,14.10
2019-03-03T10:58:17.475Z,10.90
2019-03-03T10:59:17.653Z,15.00
2019-03-03T11:00:17.831Z,15.10
2019-03-03T11:01:17.993Z,10.80
2019-03-03T11:02:18.169Z,13.50
2019-03-03T11:03:18.376Z,16.80
2019-03-03T11:04:18.523Z,10.50
2019-03-03T11:05:18.689Z,12.80
2019-03-03T11:06:18.867Z,13.00
2019-03-03T11:07:19.047Z,14.40
2019-03-03T11:08:19.224Z,15.30
2019-03-03T11:09:19.401Z,11.20
2019-03-03T11:10:19.580Z,14.60
2019-03-03T11:11:19.761Z,15.80
2019-03-03T11:12:19.931Z,14.00
2019-03-03T11:13:20.113Z,13.00
2019-03-03T11:14:20.295Z,24.50
2019-03-03T11:15:20.470Z,13.30
2019-03-03T11:16:20.651Z,13.80
2019-03-03T11:17:20.832Z,14.50
2019-03-03T11:18:20.969Z,15.10
2019-03-03T11:19:21.152Z,8.60
2019-03-03T11:21:21.475Z,11.50
2019-03-03T11:22:21.663Z,13.10
2019-03-03T11:23:21.804Z,11.70
2019-03-03T11:24:21.979Z,16.00
2019-03-03T11:25:22.156Z,12.00
2019-03-03T11:26:22.334Z,12.20
2019-03-03T11:27:22.507Z,13.10
2019-03-03T11:28:23.977Z,9.90
2019-03-03T11:29:22.856Z,10.90
2019-03-03T11:30:23.029Z,10.40
2019-03-03T11:31:23.188Z,10.70
2019-03-03T11:32:23.366Z,14.10
2019-03-03T11:33:23.538Z,13.60
2019-03-03T11:34:23.712Z,11.30
2019-03-03T11:35:23.882Z,12.90
2019-03-03T11:36:24.067Z,14.60
2019-03-03T11:37:24.232Z,13.60
2019-03-03T11:38:24.415Z,13.60
2019-03-03T11:39:24.605Z,15.40
2019-03-03T11:40:24.767Z,12.10
2019-03-03T11:41:24.941Z,14.60
2019-03-03T11:42:25.108Z,14.90
2019-03-03T11:43:25.302Z,13.80
2019-03-03T11:44:25.472Z,10.20
2019-03-03T11:45:25.648Z,13.50
2019-03-03T11:46:25.824Z,10.20
2019-03-03T11:47:26.001Z,12.50
2019-03-03T11:48:26.177Z,14.30
2019-03-03T11:49:26.361Z,12.20
2019-03-03T11:50:26.534Z,11.40
2019-03-03T11:51:26.711Z,10.70
2019-03-03T11:52:26.892Z,14.10
2019-03-03T11:53:27.117Z,10.90
2019-03-03T11:54:27.243Z,12.40
2019-03-03T11:55:27.418Z,10.00
2019-03-03T11:56:27.600Z,14.10
2019-03-03T11:57:27.773Z,13.50
2019-03-03T11:58:27.942Z,13.70
2019-03-03T11:59:28.129Z,10.20
2019-03-03T12:00:28.307Z,13.40
2019-03-03T12:01:28.474Z,9.80
2019-03-03T12:02:28.644Z,11.90
2019-03-03T12:03:28.822Z,11.20
2019-03-03T12:04:28.997Z,12.40
2019-03-03T12:05:29.180Z,10.50
2019-03-03T12:06:29.380Z,12.70
2019-03-03T12:07:29.539Z,11.30
2019-03-03T12:08:29.715Z,13.90
2019-03-03T12:09:29.888Z,13.90
2019-03-03T12:10:30.068Z,14.50
2019-03-03T12:11:30.250Z,12.50
2019-03-03T12:12:30.424Z,12.60
2019-03-03T12:13:30.595Z,10.20
2019-03-03T12:14:30.757Z,14.10
2019-03-03T12:15:30.920Z,15.40
2019-03-03T12:16:31.099Z,11.40
2019-03-03T12:17:31.269Z,14.60
2019-03-03T12:18:31.435Z,12.10
2019-03-03T12:19:31.608Z,13.60
2019-03-03T12:20:31.768Z,20.90
2019-03-03T12:21:31.944Z,14.70
2019-03-03T12:22:32.118Z,12.30
2019-03-03T12:23:32.293Z,13.30
2019-03-03T12:24:32.467Z,13.30
2019-03-03T12:25:32.644Z,13.00
2019-03-03T12:26:32.813Z,17.00
2019-03-03T12:27:32.990Z,10.30
2019-03-03T12:28:33.179Z,14.20
2019-03-03T12:29:33.349Z,11.80
2019-03-03T12:30:33.536Z,11.80
2019-03-03T12:31:33.704Z,9.10
2019-03-03T12:32:33.882Z,10.30
2019-03-03T12:33:34.032Z,13.90
2019-03-03T12:34:34.207Z,15.20
2019-03-03T12:35:34.387Z,14.40
2019-03-03T12:36:34.554Z,11.00
2019-03-03T12:37:34.737Z,9.30
2019-03-03T12:38:34.909Z,12.10
2019-03-03T12:39:35.089Z,12.80
2019-03-03T12:40:35.261Z,14.90
2019-03-03T12:41:35.438Z,14.10
2019-03-03T12:42:35.612Z,12.10
2019-03-03T12:43:35.795Z,11.10
2019-03-03T12:44:35.978Z,13.50
2019-03-03T12:45:36.142Z,8.10
2019-03-03T12:46:36.311Z,11.90
2019-03-03T12:47:36.484Z,12.10
2019-03-03T12:48:36.665Z,13.80
2019-03-03T12:49:36.837Z,11.20
2019-03-03T12:50:37.033Z,12.50
2019-03-03T12:51:37.185Z,12.70
2019-03-03T12:52:37.351Z,8.10
2019-03-03T12:53:37.531Z,11.20
2019-03-03T12:54:37.733Z,12.80
2019-03-03T12:55:37.884Z,10.60
2019-03-03T12:56:38.057Z,11.20
2019-03-03T12:57:38.230Z,16.00
2019-03-03T12:58:38.411Z,13.90
2019-03-03T12:59:38.589Z,12.30
2019-03-03T13:00:38.763Z,10.20
2019-03-03T13:01:38.950Z,11.10
2019-03-03T13:02:39.141Z,12.60
2019-03-03T13:03:39.305Z,9.80
2019-03-03T13:04:39.493Z,12.60
2019-03-03T13:05:39.639Z,11.60
2019-03-03T13:06:39.828Z,10.70